sensor_id;sensor_type;location;lat;lon;timestamp;temperature;humidity
10566;DHT22;5331;48.148;16.326;2024-03-29T00:15:08;10.00;1.00
10566;DHT22;5331;48.148;16.326;2024-03-29T00:17:35;10.10;1.00
10566;DHT22;5331;48.148;16.326;2024-03-29T00:20:01;9.90;1.00
10566;DHT22;5331;48.148;16.326;2024-03-29T00:22:28;10.00;1.00
10566;DHT22;5331;48.148;16.326;2024-03-29T00:24:54;10.00;1.00
10566;DHT22;5331;48.148;16.326;2024-03-29T00:27:20;10.00;1.00
10566;DHT22;5331;48.148;16.326;2024-03-29T00:29:47;9.90;1.00
10566;DHT22;5331;48.148;16.326;2024-03-29T00:51:37;9.70;1.00
10566;DHT22;5331;48.148;16.326;2024-03-29T00:54:03;9.30;1.00
10566;DHT22;5331;48.148;16.326;2024-03-29T00:56:29;9.20;1.00
10566;DHT22;5331;48.148;16.326;2024-03-29T00:58:55;9.10;1.00
10566;DHT22;5331;48.148;16.326;2024-03-29T01:01:21;9.10;1.00
10566;DHT22;5331;48.148;16.326;2024-03-29T01:03:47;9.00;1.00
10566;DHT22;5331;48.148;16.326;2024-03-29T01:06:13;9.00;1.00
10566;DHT22;5331;48.148;16.326;2024-03-29T01:21:46;8.90;1.00
10566;DHT22;5331;48.148;16.326;2024-03-29T01:24:12;8.60;1.00
10566;DHT22;5331;48.148;16.326;2024-03-29T01:26:38;8.50;1.00
10566;DHT22;5331;48.148;16.326;2024-03-29T01:29:04;8.40;1.00
10566;DHT22;5331;48.148;16.326;2024-03-29T01:31:30;8.30;1.00
10566;DHT22;5331;48.148;16.326;2024-03-29T01:33:56;8.40;1.00
10566;DHT22;5331;48.148;16.326;2024-03-29T01:36:24;8.50;1.00
10566;DHT22;5331;48.148;16.326;2024-03-29T01:38:51;8.40;1.00
10566;DHT22;5331;48.148;16.326;2024-03-29T01:59:14;8.00;1.00
10566;DHT22;5331;48.148;16.326;2024-03-29T02:01:42;8.00;1.00
10566;DHT22;5331;48.148;16.326;2024-03-29T02:04:08;7.90;1.00
10566;DHT22;5331;48.148;16.326;2024-03-29T02:06:35;7.90;1.00
10566;DHT22;5331;48.148;16.326;2024-03-29T02:09:02;7.80;1.00
10566;DHT22;5331;48.148;16.326;2024-03-29T02:11:29;7.80;1.00
10566;DHT22;5331;48.148;16.326;2024-03-29T02:13:56;7.80;1.00
10566;DHT22;5331;48.148;16.326;2024-03-29T02:16:23;7.80;1.00
10566;DHT22;5331;48.148;16.326;2024-03-29T02:36:42;7.60;1.00
10566;DHT22;5331;48.148;16.326;2024-03-29T02:39:09;7.30;1.00
10566;DHT22;5331;48.148;16.326;2024-03-29T02:41:35;7.20;1.00
10566;DHT22;5331;48.148;16.326;2024-03-29T02:44:02;7.10;1.00
10566;DHT22;5331;48.148;16.326;2024-03-29T02:46:28;7.00;1.00
10566;DHT22;5331;48.148;16.326;2024-03-29T02:48:54;6.90;1.00
10566;DHT22;5331;48.148;16.326;2024-03-29T02:51:20;6.80;1.00
10566;DHT22;5331;48.148;16.326;2024-03-29T03:07:02;6.80;1.00
10566;DHT22;5331;48.148;16.326;2024-03-29T03:09:43;6.40;1.00
10566;DHT22;5331;48.148;16.326;2024-03-29T03:12:29;6.30;1.00
10566;DHT22;5331;48.148;16.326;2024-03-29T03:14:55;6.30;1.00
10566;DHT22;5331;48.148;16.326;2024-03-29T03:17:22;6.20;1.00
10566;DHT22;5331;48.148;16.326;2024-03-29T03:19:50;6.20;1.00
10566;DHT22;5331;48.148;16.326;2024-03-29T03:22:17;6.20;1.00
10566;DHT22;5331;48.148;16.326;2024-03-29T03:24:43;6.10;1.00
10566;DHT22;5331;48.148;16.326;2024-03-29T03:42:36;5.90;1.00
10566;DHT22;5331;48.148;16.326;2024-03-29T03:45:03;5.60;1.00
10566;DHT22;5331;48.148;16.326;2024-03-29T03:47:29;5.50;1.00
10566;DHT22;5331;48.148;16.326;2024-03-29T03:49:55;5.40;1.00
10566;DHT22;5331;48.148;16.326;2024-03-29T03:52:21;5.40;1.00
10566;DHT22;5331;48.148;16.326;2024-03-29T03:54:48;5.30;1.00
10566;DHT22;5331;48.148;16.326;2024-03-29T03:57:14;5.20;1.00
10566;DHT22;5331;48.148;16.326;2024-03-29T03:59:41;5.20;1.00
10566;DHT22;5331;48.148;16.326;2024-03-29T04:15:22;5.10;1.00
10566;DHT22;5331;48.148;16.326;2024-03-29T04:17:48;5.00;1.00
10566;DHT22;5331;48.148;16.326;2024-03-29T04:20:14;5.00;1.00
10566;DHT22;5331;48.148;16.326;2024-03-29T04:22:41;4.90;1.00
10566;DHT22;5331;48.148;16.326;2024-03-29T04:25:07;4.80;1.00
10566;DHT22;5331;48.148;16.326;2024-03-29T04:27:34;4.80;1.00
10566;DHT22;5331;48.148;16.326;2024-03-29T04:30:00;4.70;1.00
10566;DHT22;5331;48.148;16.326;2024-03-29T04:50:49;4.50;1.00
10566;DHT22;5331;48.148;16.326;2024-03-29T04:53:16;4.40;1.00
10566;DHT22;5331;48.148;16.326;2024-03-29T04:55:42;4.30;1.00
10566;DHT22;5331;48.148;16.326;2024-03-29T04:58:10;4.30;1.00
10566;DHT22;5331;48.148;16.326;2024-03-29T05:00:37;4.30;1.00
10566;DHT22;5331;48.148;16.326;2024-03-29T05:03:03;4.30;1.00
10566;DHT22;5331;48.148;16.326;2024-03-29T05:05:30;4.30;1.00
10566;DHT22;5331;48.148;16.326;2024-03-29T05:21:08;4.30;1.00
10566;DHT22;5331;48.148;16.326;2024-03-29T05:23:35;4.50;1.00
10566;DHT22;5331;48.148;16.326;2024-03-29T05:26:01;4.50;1.00
10566;DHT22;5331;48.148;16.326;2024-03-29T05:28:27;4.50;1.00
10566;DHT22;5331;48.148;16.326;2024-03-29T05:30:54;4.60;1.00
10566;DHT22;5331;48.148;16.326;2024-03-29T05:33:20;4.60;1.00
10566;DHT22;5331;48.148;16.326;2024-03-29T05:35:47;4.60;1.00
10566;DHT22;5331;48.148;16.326;2024-03-29T05:53:40;4.90;1.00
10566;DHT22;5331;48.148;16.326;2024-03-29T05:56:06;5.90;1.00
10566;DHT22;5331;48.148;16.326;2024-03-29T05:58:33;6.10;1.00
10566;DHT22;5331;48.148;16.326;2024-03-29T06:01:00;6.60;1.00
10566;DHT22;5331;48.148;16.326;2024-03-29T06:03:26;7.60;1.00
10566;DHT22;5331;48.148;16.326;2024-03-29T06:05:53;8.90;1.00
10566;DHT22;5331;48.148;16.326;2024-03-29T06:08:19;9.80;1.00
10566;DHT22;5331;48.148;16.326;2024-03-29T06:10:47;10.60;1.00
10566;DHT22;5331;48.148;16.326;2024-03-29T06:31:19;12.50;1.00
10566;DHT22;5331;48.148;16.326;2024-03-29T06:33:45;13.30;1.00
10566;DHT22;5331;48.148;16.326;2024-03-29T06:36:11;13.50;1.00
10566;DHT22;5331;48.148;16.326;2024-03-29T06:38:38;13.20;1.00
10566;DHT22;5331;48.148;16.326;2024-03-29T06:41:04;13.20;1.00
10566;DHT22;5331;48.148;16.326;2024-03-29T06:43:30;13.40;1.00
10566;DHT22;5331;48.148;16.326;2024-03-29T06:45:57;13.60;1.00
10566;DHT22;5331;48.148;16.326;2024-03-29T07:06:12;13.40;1.00
10566;DHT22;5331;48.148;16.326;2024-03-29T07:08:39;12.60;1.00
10566;DHT22;5331;48.148;16.326;2024-03-29T07:11:05;12.50;1.00
10566;DHT22;5331;48.148;16.326;2024-03-29T07:13:31;12.60;1.00
10566;DHT22;5331;48.148;16.326;2024-03-29T07:15:58;12.50;1.00
10566;DHT22;5331;48.148;16.326;2024-03-29T07:18:24;12.80;1.00
10566;DHT22;5331;48.148;16.326;2024-03-29T07:20:51;13.00;1.00
10566;DHT22;5331;48.148;16.326;2024-03-29T07:36:28;13.20;1.00
10566;DHT22;5331;48.148;16.326;2024-03-29T07:39:00;14.70;1.00
10566;DHT22;5331;48.148;16.326;2024-03-29T07:41:27;14.80;1.00
10566;DHT22;5331;48.148;16.326;2024-03-29T07:43:54;14.90;1.00
10566;DHT22;5331;48.148;16.326;2024-03-29T07:46:22;15.30;1.00
10566;DHT22;5331;48.148;16.326;2024-03-29T07:48:48;15.40;1.00
10566;DHT22;5331;48.148;16.326;2024-03-29T07:51:15;15.50;1.00
10566;DHT22;5331;48.148;16.326;2024-03-29T08:09:11;15.90;1.00
10566;DHT22;5331;48.148;16.326;2024-03-29T08:11:39;16.20;1.00
10566;DHT22;5331;48.148;16.326;2024-03-29T08:14:06;16.50;1.00
10566;DHT22;5331;48.148;16.326;2024-03-29T08:16:33;16.80;1.00
10566;DHT22;5331;48.148;16.326;2024-03-29T08:18:59;16.80;1.00
10566;DHT22;5331;48.148;16.326;2024-03-29T08:21:25;16.90;1.00
10566;DHT22;5331;48.148;16.326;2024-03-29T08:23:53;17.00;1.00
10566;DHT22;5331;48.148;16.326;2024-03-29T08:41:45;16.60;1.00
10566;DHT22;5331;48.148;16.326;2024-03-29T08:44:12;16.10;1.00
10566;DHT22;5331;48.148;16.326;2024-03-29T08:46:38;16.20;1.00
10566;DHT22;5331;48.148;16.326;2024-03-29T08:49:04;16.30;1.00
10566;DHT22;5331;48.148;16.326;2024-03-29T08:51:31;16.70;1.00
10566;DHT22;5331;48.148;16.326;2024-03-29T08:53:57;16.70;1.00
10566;DHT22;5331;48.148;16.326;2024-03-29T08:56:26;16.70;1.00
10566;DHT22;5331;48.148;16.326;2024-03-29T09:11:59;17.10;1.00
10566;DHT22;5331;48.148;16.326;2024-03-29T09:14:27;16.90;1.00
10566;DHT22;5331;48.148;16.326;2024-03-29T09:16:53;16.90;1.00
10566;DHT22;5331;48.148;16.326;2024-03-29T09:19:20;16.90;1.00
10566;DHT22;5331;48.148;16.326;2024-03-29T09:21:46;17.20;1.00
10566;DHT22;5331;48.148;16.326;2024-03-29T09:24:12;17.50;1.00
10566;DHT22;5331;48.148;16.326;2024-03-29T09:26:39;17.70;1.00
10566;DHT22;5331;48.148;16.326;2024-03-29T09:42:15;17.70;1.00
10566;DHT22;5331;48.148;16.326;2024-03-29T09:44:43;18.00;1.00
10566;DHT22;5331;48.148;16.326;2024-03-29T09:47:10;18.30;1.00
10566;DHT22;5331;48.148;16.326;2024-03-29T09:49:38;18.20;1.00
10566;DHT22;5331;48.148;16.326;2024-03-29T09:52:07;18.30;1.00
10566;DHT22;5331;48.148;16.326;2024-03-29T09:54:34;18.40;1.00
10566;DHT22;5331;48.148;16.326;2024-03-29T09:57:01;18.50;1.00
10566;DHT22;5331;48.148;16.326;2024-03-29T10:12:31;18.30;1.00
10566;DHT22;5331;48.148;16.326;2024-03-29T10:14:58;18.80;1.00
10566;DHT22;5331;48.148;16.326;2024-03-29T10:17:31;18.80;1.00
10566;DHT22;5331;48.148;16.326;2024-03-29T10:20:00;18.60;1.00
10566;DHT22;5331;48.148;16.326;2024-03-29T10:22:26;18.30;1.00
10566;DHT22;5331;48.148;16.326;2024-03-29T10:24:53;18.40;1.00
10566;DHT22;5331;48.148;16.326;2024-03-29T10:27:19;18.20;1.00
10566;DHT22;5331;48.148;16.326;2024-03-29T10:45:14;18.00;1.00
10566;DHT22;5331;48.148;16.326;2024-03-29T10:47:43;18.60;1.00
10566;DHT22;5331;48.148;16.326;2024-03-29T10:50:12;18.60;1.00
10566;DHT22;5331;48.148;16.326;2024-03-29T10:52:40;18.50;1.00
10566;DHT22;5331;48.148;16.326;2024-03-29T10:55:08;18.50;1.00
10566;DHT22;5331;48.148;16.326;2024-03-29T10:57:36;18.70;1.00
10566;DHT22;5331;48.148;16.326;2024-03-29T11:00:11;18.70;1.00
10566;DHT22;5331;48.148;16.326;2024-03-29T11:02:48;18.70;1.00
10566;DHT22;5331;48.148;16.326;2024-03-29T11:20:48;18.30;1.00
10566;DHT22;5331;48.148;16.326;2024-03-29T11:23:18;18.80;1.00
10566;DHT22;5331;48.148;16.326;2024-03-29T11:25:46;19.10;1.00
10566;DHT22;5331;48.148;16.326;2024-03-29T11:28:15;19.10;1.00
10566;DHT22;5331;48.148;16.326;2024-03-29T11:30:48;18.90;1.00
10566;DHT22;5331;48.148;16.326;2024-03-29T11:33:29;18.90;1.00
10566;DHT22;5331;48.148;16.326;2024-03-29T11:35:56;18.80;1.00
10566;DHT22;5331;48.148;16.326;2024-03-29T11:53:56;18.80;1.00
10566;DHT22;5331;48.148;16.326;2024-03-29T11:56:23;20.20;1.00
10566;DHT22;5331;48.148;16.326;2024-03-29T11:58:49;20.30;1.00
10566;DHT22;5331;48.148;16.326;2024-03-29T12:01:15;20.40;1.00
10566;DHT22;5331;48.148;16.326;2024-03-29T12:03:42;20.30;1.00
10566;DHT22;5331;48.148;16.326;2024-03-29T12:06:10;20.30;1.00
10566;DHT22;5331;48.148;16.326;2024-03-29T12:08:38;20.40;1.00
10566;DHT22;5331;48.148;16.326;2024-03-29T12:11:05;20.70;1.00
10566;DHT22;5331;48.148;16.326;2024-03-29T12:26:53;21.50;1.00
10566;DHT22;5331;48.148;16.326;2024-03-29T12:29:21;22.80;1.00
10566;DHT22;5331;48.148;16.326;2024-03-29T12:31:56;22.50;1.00
10566;DHT22;5331;48.148;16.326;2024-03-29T12:34:23;22.30;1.00
10566;DHT22;5331;48.148;16.326;2024-03-29T12:36:49;22.10;1.00
10566;DHT22;5331;48.148;16.326;2024-03-29T12:39:17;21.90;1.00
10566;DHT22;5331;48.148;16.326;2024-03-29T12:41:43;21.70;1.00
10566;DHT22;5331;48.148;16.326;2024-03-29T12:58:05;22.00;1.00
10566;DHT22;5331;48.148;16.326;2024-03-29T13:00:35;21.70;1.00
10566;DHT22;5331;48.148;16.326;2024-03-29T13:03:01;21.70;1.00
10566;DHT22;5331;48.148;16.326;2024-03-29T13:05:28;21.50;1.00
10566;DHT22;5331;48.148;16.326;2024-03-29T13:07:59;21.50;1.00
10566;DHT22;5331;48.148;16.326;2024-03-29T13:10:26;21.50;1.00
10566;DHT22;5331;48.148;16.326;2024-03-29T13:12:52;21.50;1.00
10566;DHT22;5331;48.148;16.326;2024-03-29T13:30:47;21.60;1.00
10566;DHT22;5331;48.148;16.326;2024-03-29T13:33:17;22.60;1.00
10566;DHT22;5331;48.148;16.326;2024-03-29T13:35:43;22.70;1.00
10566;DHT22;5331;48.148;16.326;2024-03-29T13:38:11;22.40;1.00
10566;DHT22;5331;48.148;16.326;2024-03-29T13:40:37;22.50;1.00
10566;DHT22;5331;48.148;16.326;2024-03-29T13:43:06;22.90;1.00
10566;DHT22;5331;48.148;16.326;2024-03-29T13:45:32;23.00;1.00
10566;DHT22;5331;48.148;16.326;2024-03-29T13:47:59;23.10;1.00
10566;DHT22;5331;48.148;16.326;2024-03-29T14:04:56;23.50;1.00
10566;DHT22;5331;48.148;16.326;2024-03-29T14:07:24;24.10;1.00
10566;DHT22;5331;48.148;16.326;2024-03-29T14:09:51;24.10;1.00
10566;DHT22;5331;48.148;16.326;2024-03-29T14:12:17;24.20;1.00
10566;DHT22;5331;48.148;16.326;2024-03-29T14:14:46;24.10;1.00
10566;DHT22;5331;48.148;16.326;2024-03-29T14:17:14;24.20;1.00
10566;DHT22;5331;48.148;16.326;2024-03-29T14:19:41;24.30;1.00
10566;DHT22;5331;48.148;16.326;2024-03-29T14:35:26;24.20;1.00
10566;DHT22;5331;48.148;16.326;2024-03-29T14:37:54;23.80;1.00
10566;DHT22;5331;48.148;16.326;2024-03-29T14:40:21;23.70;1.00
10566;DHT22;5331;48.148;16.326;2024-03-29T14:42:47;23.40;1.00
10566;DHT22;5331;48.148;16.326;2024-03-29T14:45:14;23.20;1.00
10566;DHT22;5331;48.148;16.326;2024-03-29T14:47:40;23.20;1.00
10566;DHT22;5331;48.148;16.326;2024-03-29T14:50:07;23.10;1.00
10566;DHT22;5331;48.148;16.326;2024-03-29T15:08:00;23.00;1.00
10566;DHT22;5331;48.148;16.326;2024-03-29T15:10:27;23.10;1.00
10566;DHT22;5331;48.148;16.326;2024-03-29T15:12:53;23.10;1.00
10566;DHT22;5331;48.148;16.326;2024-03-29T15:15:19;22.80;1.00
10566;DHT22;5331;48.148;16.326;2024-03-29T15:17:46;22.80;1.00
10566;DHT22;5331;48.148;16.326;2024-03-29T15:20:12;22.70;1.00
10566;DHT22;5331;48.148;16.326;2024-03-29T15:22:41;22.60;1.00
10566;DHT22;5331;48.148;16.326;2024-03-29T15:25:10;22.50;1.00
10566;DHT22;5331;48.148;16.326;2024-03-29T15:43:06;22.30;1.00
10566;DHT22;5331;48.148;16.326;2024-03-29T15:45:32;22.10;1.00
10566;DHT22;5331;48.148;16.326;2024-03-29T15:47:58;22.00;1.00
10566;DHT22;5331;48.148;16.326;2024-03-29T15:50:25;21.90;1.00
10566;DHT22;5331;48.148;16.326;2024-03-29T15:52:51;21.70;1.00
10566;DHT22;5331;48.148;16.326;2024-03-29T15:55:17;21.50;1.00
10566;DHT22;5331;48.148;16.326;2024-03-29T15:57:44;21.30;1.00
10566;DHT22;5331;48.148;16.326;2024-03-29T16:15:37;21.00;1.00
10566;DHT22;5331;48.148;16.326;2024-03-29T16:18:03;20.40;1.00
10566;DHT22;5331;48.148;16.326;2024-03-29T16:20:30;20.20;1.00
10566;DHT22;5331;48.148;16.326;2024-03-29T16:22:56;20.00;1.00
10566;DHT22;5331;48.148;16.326;2024-03-29T16:25:22;20.00;1.00
10566;DHT22;5331;48.148;16.326;2024-03-29T16:27:48;19.80;1.00
10566;DHT22;5331;48.148;16.326;2024-03-29T16:30:14;19.70;1.00
10566;DHT22;5331;48.148;16.326;2024-03-29T16:32:43;19.70;1.00
10566;DHT22;5331;48.148;16.326;2024-03-29T16:50:36;19.40;1.00
10566;DHT22;5331;48.148;16.326;2024-03-29T16:53:03;19.50;1.00
10566;DHT22;5331;48.148;16.326;2024-03-29T16:55:29;19.50;1.00
10566;DHT22;5331;48.148;16.326;2024-03-29T16:57:56;19.40;1.00
10566;DHT22;5331;48.148;16.326;2024-03-29T17:00:23;19.40;1.00
10566;DHT22;5331;48.148;16.326;2024-03-29T17:02:50;19.30;1.00
10566;DHT22;5331;48.148;16.326;2024-03-29T17:05:17;19.30;1.00
10566;DHT22;5331;48.148;16.326;2024-03-29T17:20:50;19.20;1.00
10566;DHT22;5331;48.148;16.326;2024-03-29T17:23:16;18.90;1.00
10566;DHT22;5331;48.148;16.326;2024-03-29T17:25:42;18.80;1.00
10566;DHT22;5331;48.148;16.326;2024-03-29T17:28:08;18.70;1.00
10566;DHT22;5331;48.148;16.326;2024-03-29T17:30:35;18.60;1.00
10566;DHT22;5331;48.148;16.326;2024-03-29T17:33:01;18.60;1.00
10566;DHT22;5331;48.148;16.326;2024-03-29T17:35:27;18.50;1.00
10566;DHT22;5331;48.148;16.326;2024-03-29T17:55:02;18.10;1.00
10566;DHT22;5331;48.148;16.326;2024-03-29T17:57:28;17.90;1.00
10566;DHT22;5331;48.148;16.326;2024-03-29T17:59:54;17.90;1.00
10566;DHT22;5331;48.148;16.326;2024-03-29T18:02:20;17.80;1.00
10566;DHT22;5331;48.148;16.326;2024-03-29T18:04:46;17.60;1.00
10566;DHT22;5331;48.148;16.326;2024-03-29T18:07:12;17.60;1.00
10566;DHT22;5331;48.148;16.326;2024-03-29T18:09:38;17.50;1.00
10566;DHT22;5331;48.148;16.326;2024-03-29T18:25:16;17.30;1.00
10566;DHT22;5331;48.148;16.326;2024-03-29T18:27:42;17.00;1.00
10566;DHT22;5331;48.148;16.326;2024-03-29T18:30:09;16.90;1.00
10566;DHT22;5331;48.148;16.326;2024-03-29T18:32:35;16.80;1.00
10566;DHT22;5331;48.148;16.326;2024-03-29T18:35:01;16.70;1.00
10566;DHT22;5331;48.148;16.326;2024-03-29T18:37:28;16.70;1.00
10566;DHT22;5331;48.148;16.326;2024-03-29T18:39:54;16.60;1.00
10566;DHT22;5331;48.148;16.326;2024-03-29T18:56:09;16.60;1.00
10566;DHT22;5331;48.148;16.326;2024-03-29T18:58:36;16.10;1.00
10566;DHT22;5331;48.148;16.326;2024-03-29T19:01:02;16.00;1.00
10566;DHT22;5331;48.148;16.326;2024-03-29T19:03:29;16.00;1.00
10566;DHT22;5331;48.148;16.326;2024-03-29T19:05:55;15.90;1.00
10566;DHT22;5331;48.148;16.326;2024-03-29T19:08:21;15.80;1.00
10566;DHT22;5331;48.148;16.326;2024-03-29T19:10:48;15.80;1.00
10566;DHT22;5331;48.148;16.326;2024-03-29T19:13:15;15.80;1.00
10566;DHT22;5331;48.148;16.326;2024-03-29T19:31:07;15.70;1.00
10566;DHT22;5331;48.148;16.326;2024-03-29T19:33:34;15.50;1.00
10566;DHT22;5331;48.148;16.326;2024-03-29T19:36:01;15.40;1.00
10566;DHT22;5331;48.148;16.326;2024-03-29T19:38:27;15.30;1.00
10566;DHT22;5331;48.148;16.326;2024-03-29T19:40:53;15.20;1.00
10566;DHT22;5331;48.148;16.326;2024-03-29T19:43:20;15.10;1.00
10566;DHT22;5331;48.148;16.326;2024-03-29T19:45:46;15.00;1.00
10566;DHT22;5331;48.148;16.326;2024-03-29T20:01:15;14.90;1.00
10566;DHT22;5331;48.148;16.326;2024-03-29T20:03:41;14.60;1.00
10566;DHT22;5331;48.148;16.326;2024-03-29T20:06:07;14.60;1.00
10566;DHT22;5331;48.148;16.326;2024-03-29T20:08:33;14.50;1.00
10566;DHT22;5331;48.148;16.326;2024-03-29T20:11:00;14.50;1.00
10566;DHT22;5331;48.148;16.326;2024-03-29T20:13:26;14.30;1.00
10566;DHT22;5331;48.148;16.326;2024-03-29T20:15:52;14.20;1.00
10566;DHT22;5331;48.148;16.326;2024-03-29T20:18:20;14.20;1.00
10566;DHT22;5331;48.148;16.326;2024-03-29T20:38:33;14.00;1.00
10566;DHT22;5331;48.148;16.326;2024-03-29T20:40:59;13.70;1.00
10566;DHT22;5331;48.148;16.326;2024-03-29T20:43:25;13.60;1.00
10566;DHT22;5331;48.148;16.326;2024-03-29T20:45:51;13.60;1.00
10566;DHT22;5331;48.148;16.326;2024-03-29T20:48:19;13.50;1.00
10566;DHT22;5331;48.148;16.326;2024-03-29T20:50:45;13.50;1.00
10566;DHT22;5331;48.148;16.326;2024-03-29T20:53:11;13.50;1.00
10566;DHT22;5331;48.148;16.326;2024-03-29T21:14:08;13.30;1.00
10566;DHT22;5331;48.148;16.326;2024-03-29T21:16:35;13.20;1.00
10566;DHT22;5331;48.148;16.326;2024-03-29T21:19:02;13.20;1.00
10566;DHT22;5331;48.148;16.326;2024-03-29T21:21:30;13.10;1.00
10566;DHT22;5331;48.148;16.326;2024-03-29T21:23:57;13.00;1.00
10566;DHT22;5331;48.148;16.326;2024-03-29T21:26:23;13.00;1.00
10566;DHT22;5331;48.148;16.326;2024-03-29T21:28:49;13.00;1.00
10566;DHT22;5331;48.148;16.326;2024-03-29T21:31:16;12.90;1.00
10566;DHT22;5331;48.148;16.326;2024-03-29T21:51:05;12.90;1.00
10566;DHT22;5331;48.148;16.326;2024-03-29T21:53:31;12.80;1.00
10566;DHT22;5331;48.148;16.326;2024-03-29T21:55:57;12.70;1.00
10566;DHT22;5331;48.148;16.326;2024-03-29T21:58:24;12.60;1.00
10566;DHT22;5331;48.148;16.326;2024-03-29T22:00:50;12.50;1.00
10566;DHT22;5331;48.148;16.326;2024-03-29T22:03:16;12.40;1.00
10566;DHT22;5331;48.148;16.326;2024-03-29T22:05:43;12.40;1.00
10566;DHT22;5331;48.148;16.326;2024-03-29T22:25:56;12.40;1.00
10566;DHT22;5331;48.148;16.326;2024-03-29T22:28:22;12.30;1.00
10566;DHT22;5331;48.148;16.326;2024-03-29T22:30:48;12.20;1.00
10566;DHT22;5331;48.148;16.326;2024-03-29T22:33:18;12.20;1.00
10566;DHT22;5331;48.148;16.326;2024-03-29T22:35:44;12.20;1.00
10566;DHT22;5331;48.148;16.326;2024-03-29T22:38:11;12.20;1.00
10566;DHT22;5331;48.148;16.326;2024-03-29T22:40:44;12.30;1.00
10566;DHT22;5331;48.148;16.326;2024-03-29T22:43:12;12.30;1.00
10566;DHT22;5331;48.148;16.326;2024-03-29T23:01:05;12.20;1.00
10566;DHT22;5331;48.148;16.326;2024-03-29T23:03:31;12.30;1.00
10566;DHT22;5331;48.148;16.326;2024-03-29T23:05:57;12.30;1.00
10566;DHT22;5331;48.148;16.326;2024-03-29T23:08:23;12.30;1.00
10566;DHT22;5331;48.148;16.326;2024-03-29T23:10:50;12.20;1.00
10566;DHT22;5331;48.148;16.326;2024-03-29T23:13:16;12.20;1.00
10566;DHT22;5331;48.148;16.326;2024-03-29T23:15:42;12.20;1.00
10566;DHT22;5331;48.148;16.326;2024-03-29T23:35:58;12.10;1.00
10566;DHT22;5331;48.148;16.326;2024-03-29T23:38:24;12.10;1.00
10566;DHT22;5331;48.148;16.326;2024-03-29T23:40:54;12.00;1.00
10566;DHT22;5331;48.148;16.326;2024-03-29T23:43:20;12.00;1.00
10566;DHT22;5331;48.148;16.326;2024-03-29T23:45:57;12.00;1.00
10566;DHT22;5331;48.148;16.326;2024-03-29T23:48:23;12.00;1.00
10566;DHT22;5331;48.148;16.326;2024-03-29T23:50:51;12.00;1.00
